createdAt,value
2019-06-26T00:00:15.638Z,76.29
2019-06-26T00:02:45.417Z,76.27
2019-06-26T00:05:15.574Z,76.46
2019-06-26T00:07:45.010Z,76.77
2019-06-26T00:10:15.156Z,76.94
2019-06-26T00:12:45.150Z,76.90
2019-06-26T00:15:15.285Z,77.16
2019-06-26T00:17:44.732Z,77.14
2019-06-26T00:20:16.596Z,77.04
2019-06-26T00:22:46.053Z,77.15
2019-06-26T00:25:15.579Z,77.04
2019-06-26T00:27:45.022Z,77.29
2019-06-26T00:30:14.689Z,77.62
2019-06-26T00:32:44.132Z,77.57
2019-06-26T00:35:13.744Z,77.76
2019-06-26T00:37:43.206Z,77.96
2019-06-26T00:40:12.897Z,78.18
2019-06-26T00:42:42.357Z,78.30
2019-06-26T00:45:12.045Z,78.22
2019-06-26T00:47:41.553Z,78.32
2019-06-26T00:50:12.057Z,78.41
2019-06-26T00:52:41.518Z,78.75
2019-06-26T00:55:10.967Z,78.60
2019-06-26T00:57:40.422Z,78.57
2019-06-26T01:00:11.943Z,78.46
2019-06-26T01:02:41.382Z,78.27
2019-06-26T01:05:12.312Z,78.26
2019-06-26T01:07:42.095Z,78.35
2019-06-26T01:10:13.274Z,78.11
2019-06-26T01:12:42.730Z,77.84
2019-06-26T01:15:12.956Z,77.76
2019-06-26T01:17:42.421Z,77.57
2019-06-26T01:20:12.100Z,77.82
2019-06-26T01:22:41.567Z,77.89
2019-06-26T01:25:11.275Z,78.26
2019-06-26T01:27:40.720Z,79.17
2019-06-26T01:30:11.489Z,78.75
2019-06-26T01:32:40.933Z,78.95
2019-06-26T01:35:10.535Z,80.65
2019-06-26T01:37:39.978Z,80.04
2019-06-26T01:40:10.241Z,79.46
2019-06-26T01:42:39.702Z,79.28
2019-06-26T01:45:09.866Z,79.26
2019-06-26T01:47:39.676Z,79.30
2019-06-26T01:50:09.261Z,79.61
2019-06-26T01:52:38.698Z,80.09
2019-06-26T01:55:08.765Z,79.91
2019-06-26T01:57:38.210Z,80.70
2019-06-26T02:00:10.841Z,81.07
2019-06-26T02:02:40.375Z,80.61
2019-06-26T02:05:10.642Z,80.59
2019-06-26T02:07:40.166Z,80.42
2019-06-26T02:10:11.215Z,80.11
2019-06-26T02:12:40.663Z,80.15
2019-06-26T02:15:10.467Z,80.69
2019-06-26T02:17:39.905Z,80.57
2019-06-26T02:20:09.876Z,80.56
2019-06-26T02:22:39.613Z,80.93
2019-06-26T02:25:09.418Z,80.90
2019-06-26T02:27:39.076Z,80.72
2019-06-26T02:30:09.394Z,81.03
2019-06-26T02:32:38.828Z,80.75
2019-06-26T02:35:10.406Z,80.50
2019-06-26T02:37:39.802Z,80.34
2019-06-26T02:40:10.456Z,80.33
2019-06-26T02:42:40.274Z,80.11
2019-06-26T02:45:10.058Z,80.02
2019-06-26T02:47:39.498Z,79.95
2019-06-26T02:50:10.166Z,80.20
2019-06-26T02:52:39.627Z,80.73
2019-06-26T02:55:09.523Z,80.83
2019-06-26T02:57:38.975Z,80.93
2019-06-26T03:00:08.848Z,80.98
2019-06-26T03:02:38.278Z,80.77
2019-06-26T03:05:08.563Z,80.70
2019-06-26T03:07:38.006Z,80.36
2019-06-26T03:10:11.456Z,80.45
2019-06-26T03:12:40.920Z,80.41
2019-06-26T03:15:10.995Z,80.68
2019-06-26T03:17:54.012Z,80.64
2019-06-26T03:20:11.968Z,80.68
2019-06-26T03:22:41.419Z,81.07
2019-06-26T03:25:10.993Z,81.08
2019-06-26T03:27:40.507Z,80.98
2019-06-26T03:30:10.115Z,80.84
2019-06-26T03:32:39.577Z,80.77
2019-06-26T03:35:09.466Z,80.59
2019-06-26T03:37:38.926Z,80.80
2019-06-26T03:40:09.124Z,80.79
2019-06-26T03:42:38.592Z,80.72
2019-06-26T03:45:24.166Z,80.77
2019-06-26T03:47:39.912Z,80.80
2019-06-26T03:50:09.718Z,80.77
2019-06-26T03:52:39.169Z,81.52
2019-06-26T03:55:08.761Z,81.28
2019-06-26T03:57:38.216Z,81.06
2019-06-26T04:00:08.768Z,80.72
2019-06-26T04:02:38.234Z,80.92
2019-06-26T04:05:08.388Z,81.25
2019-06-26T04:07:37.815Z,81.04
2019-06-26T04:10:08.321Z,80.96
2019-06-26T04:12:37.819Z,80.44
2019-06-26T04:15:11.052Z,80.15
2019-06-26T04:17:40.501Z,79.90
2019-06-26T04:20:10.414Z,79.51
2019-06-26T04:22:39.955Z,79.13
2019-06-26T04:25:09.928Z,78.77
2019-06-26T04:27:39.367Z,78.75
2019-06-26T04:30:13.530Z,78.78
2019-06-26T04:32:42.971Z,78.98
2019-06-26T04:35:13.092Z,78.78
2019-06-26T04:37:42.544Z,78.62
2019-06-26T04:40:12.326Z,78.53
2019-06-26T04:42:41.775Z,78.68
2019-06-26T04:45:11.951Z,78.54
2019-06-26T04:47:41.411Z,78.31
2019-06-26T04:50:11.392Z,78.11
2019-06-26T04:52:40.844Z,77.72
2019-06-26T04:55:11.003Z,77.52
2019-06-26T04:57:40.445Z,77.35
2019-06-26T05:00:11.394Z,77.23
2019-06-26T05:02:40.855Z,77.04
2019-06-26T05:05:11.119Z,76.66
2019-06-26T05:07:40.580Z,76.19
2019-06-26T05:10:10.933Z,75.90
2019-06-26T05:12:40.374Z,75.74
2019-06-26T05:15:11.444Z,75.41
2019-06-26T05:17:40.884Z,75.18
2019-06-26T05:20:11.240Z,74.78
2019-06-26T05:22:40.691Z,74.51
2019-06-26T05:25:10.854Z,74.08
2019-06-26T05:27:40.582Z,73.75
2019-06-26T05:30:31.289Z,73.69
2019-06-26T05:33:00.794Z,73.81
2019-06-26T05:35:30.247Z,73.52
2019-06-26T05:38:00.016Z,73.38
2019-06-26T05:40:29.492Z,73.03
2019-06-26T05:42:58.913Z,72.54
2019-06-26T05:45:28.451Z,72.57
2019-06-26T05:47:57.892Z,72.40
2019-06-26T05:50:27.897Z,72.61
2019-06-26T05:52:57.345Z,72.41
2019-06-26T05:55:26.821Z,71.55
2019-06-26T05:57:56.312Z,71.22
2019-06-26T06:00:26.017Z,71.27
2019-06-26T06:02:55.470Z,71.03
2019-06-26T06:05:24.984Z,70.72
2019-06-26T06:07:54.564Z,70.52
2019-06-26T06:10:24.092Z,70.08
2019-06-26T06:12:53.541Z,69.70
2019-06-26T06:15:23.081Z,69.68
2019-06-26T06:17:52.506Z,70.17
2019-06-26T06:20:37.744Z,69.95
2019-06-26T06:23:07.325Z,69.85
2019-06-26T06:25:36.769Z,69.66
2019-06-26T06:28:06.239Z,69.57
2019-06-26T06:30:35.692Z,69.54
2019-06-26T06:33:05.131Z,69.58
2019-06-26T06:35:34.608Z,68.67
2019-06-26T06:38:04.054Z,68.42
2019-06-26T06:40:33.496Z,68.46
2019-06-26T06:43:02.967Z,68.34
2019-06-26T06:45:32.670Z,68.68
2019-06-26T06:48:02.201Z,68.19
2019-06-26T06:50:31.668Z,67.44
2019-06-26T06:53:01.117Z,67.19
2019-06-26T06:55:30.671Z,67.06
2019-06-26T06:58:00.100Z,66.93
2019-06-26T07:00:29.611Z,66.62
2019-06-26T07:02:59.089Z,66.50
2019-06-26T07:05:28.524Z,66.34
2019-06-26T07:07:57.992Z,65.77
2019-06-26T07:10:27.437Z,65.04
2019-06-26T07:12:56.944Z,64.89
2019-06-26T07:15:26.450Z,64.59
2019-06-26T07:17:55.896Z,64.78
2019-06-26T07:20:25.366Z,64.74
2019-06-26T07:22:54.862Z,64.55
2019-06-26T07:25:24.314Z,64.84
2019-06-26T07:27:53.755Z,64.70
2019-06-26T07:30:24.172Z,64.14
2019-06-26T07:32:53.615Z,64.14
2019-06-26T07:35:23.083Z,64.24
2019-06-26T07:37:52.552Z,64.64
2019-06-26T07:40:22.065Z,64.14
2019-06-26T07:42:51.523Z,63.83
2019-06-26T07:45:24.040Z,64.06
2019-06-26T07:47:52.244Z,63.54
2019-06-26T07:50:21.772Z,63.70
2019-06-26T07:52:51.220Z,63.34
2019-06-26T07:55:20.752Z,63.38
2019-06-26T07:57:50.187Z,62.54
2019-06-26T08:00:19.702Z,61.56
2019-06-26T08:02:49.237Z,61.74
2019-06-26T08:05:19.020Z,61.44
2019-06-26T08:07:48.555Z,61.46
2019-06-26T08:10:18.232Z,61.99
2019-06-26T08:12:47.678Z,61.28
2019-06-26T08:15:18.749Z,62.06
2019-06-26T08:17:59.736Z,61.06
2019-06-26T08:20:20.010Z,62.17
2019-06-26T08:22:49.450Z,61.47
2019-06-26T08:25:19.007Z,60.40
2019-06-26T08:27:48.923Z,60.81
2019-06-26T08:30:18.621Z,61.10
2019-06-26T08:32:48.152Z,61.08
2019-06-26T08:35:17.846Z,59.71
2019-06-26T08:37:47.305Z,61.01
2019-06-26T08:40:17.077Z,60.66
2019-06-26T08:42:46.537Z,59.61
2019-06-26T08:45:17.210Z,58.65
2019-06-26T08:47:46.678Z,57.90
2019-06-26T08:50:16.876Z,56.59
2019-06-26T08:52:46.323Z,55.25
2019-06-26T08:55:16.125Z,56.62
2019-06-26T08:57:45.559Z,55.69
2019-06-26T09:00:15.221Z,53.68
2019-06-26T09:02:44.677Z,54.02
2019-06-26T09:05:14.529Z,53.16
2019-06-26T09:07:43.974Z,51.52
2019-06-26T09:10:14.566Z,50.79
2019-06-26T09:12:43.987Z,51.70
2019-06-26T09:15:13.587Z,50.61
2019-06-26T09:17:43.034Z,50.17
2019-06-26T09:20:12.890Z,48.82
2019-06-26T09:22:42.373Z,50.31
2019-06-26T09:25:21.491Z,51.45
2019-06-26T09:27:43.446Z,49.77
2019-06-26T09:30:13.323Z,49.78
2019-06-26T09:32:42.761Z,51.06
2019-06-26T09:35:12.286Z,51.61
2019-06-26T09:37:41.739Z,51.92
2019-06-26T09:40:11.534Z,52.80
2019-06-26T09:42:41.155Z,52.34
2019-06-26T09:45:10.855Z,51.77
2019-06-26T09:47:40.308Z,53.50
2019-06-26T09:50:10.190Z,53.63
2019-06-26T09:52:39.655Z,50.20
2019-06-26T09:55:09.706Z,50.10
2019-06-26T09:57:39.171Z,50.83
2019-06-26T10:00:14.647Z,50.18
2019-06-26T10:02:44.133Z,51.15
2019-06-26T10:05:14.162Z,50.47
2019-06-26T10:07:43.600Z,49.78
2019-06-26T10:10:13.366Z,47.03
2019-06-26T10:12:42.804Z,45.58
2019-06-26T10:15:13.268Z,45.19
2019-06-26T10:17:42.723Z,46.58
2019-06-26T10:20:12.237Z,46.15
2019-06-26T10:22:41.683Z,45.25
2019-06-26T10:25:12.746Z,44.54
2019-06-26T10:27:42.571Z,44.88
2019-06-26T10:30:12.970Z,44.17
2019-06-26T10:32:42.382Z,42.42
2019-06-26T10:35:12.134Z,43.68
2019-06-26T10:37:41.610Z,43.66
2019-06-26T10:40:11.389Z,45.21
2019-06-26T10:42:40.848Z,43.92
2019-06-26T10:45:10.947Z,44.82
2019-06-26T10:47:40.391Z,43.86
2019-06-26T10:50:10.398Z,44.23
2019-06-26T10:52:39.849Z,44.07
2019-06-26T10:55:09.724Z,44.76
2019-06-26T10:57:39.256Z,44.13
2019-06-26T11:00:11.184Z,44.48
2019-06-26T11:02:40.644Z,44.34
2019-06-26T11:05:11.405Z,44.24
2019-06-26T11:07:40.930Z,44.53
2019-06-26T11:10:12.091Z,43.81
2019-06-26T11:12:41.542Z,44.56
2019-06-26T11:15:13.606Z,44.40
2019-06-26T11:17:43.130Z,43.66
2019-06-26T11:20:13.115Z,43.45
2019-06-26T11:22:42.576Z,43.63
2019-06-26T11:25:12.537Z,43.50
2019-06-26T11:27:42.056Z,43.99
2019-06-26T11:30:14.934Z,43.74
2019-06-26T11:32:44.388Z,44.61
2019-06-26T11:35:13.999Z,44.17
2019-06-26T11:37:43.447Z,43.66
2019-06-26T11:40:15.982Z,43.80
2019-06-26T11:42:45.495Z,42.82
2019-06-26T11:45:15.466Z,44.22
2019-06-26T11:47:45.984Z,42.25
2019-06-26T11:50:16.195Z,43.27
2019-06-26T11:52:45.662Z,41.58
2019-06-26T11:55:17.197Z,41.96
2019-06-26T11:57:46.670Z,43.09
2019-06-26T12:00:20.061Z,43.28
2019-06-26T12:02:49.524Z,42.74
2019-06-26T12:05:19.376Z,40.50
2019-06-26T12:07:48.874Z,40.28
2019-06-26T12:10:19.042Z,41.02
2019-06-26T12:12:48.488Z,39.89
2019-06-26T12:15:19.857Z,39.38
2019-06-26T12:17:49.386Z,39.81
2019-06-26T12:20:20.099Z,39.54
2019-06-26T12:22:49.657Z,38.54
2019-06-26T12:25:19.385Z,37.74
2019-06-26T12:27:48.831Z,39.87
2019-06-26T12:30:18.545Z,40.25
2019-06-26T12:33:02.446Z,39.50
2019-06-26T12:35:19.540Z,38.89
2019-06-26T12:37:49.007Z,38.91
2019-06-26T12:40:19.002Z,39.71
2019-06-26T12:42:48.476Z,39.89
2019-06-26T12:45:18.063Z,38.17
2019-06-26T12:47:47.529Z,39.15
2019-06-26T12:50:34.677Z,37.90
2019-06-26T12:52:52.878Z,38.42
2019-06-26T12:55:22.404Z,39.20
2019-06-26T12:57:51.851Z,39.20
2019-06-26T13:00:21.728Z,39.74
2019-06-26T13:02:51.179Z,36.96
2019-06-26T13:05:20.990Z,37.21
2019-06-26T13:07:50.440Z,37.07
2019-06-26T13:10:20.630Z,37.47
2019-06-26T13:12:50.107Z,37.93
2019-06-26T13:15:19.914Z,37.57
2019-06-26T13:17:49.367Z,38.60
2019-06-26T13:20:20.304Z,38.79
2019-06-26T13:22:49.739Z,40.11
2019-06-26T13:25:19.311Z,39.71
2019-06-26T13:27:48.800Z,39.88
2019-06-26T13:30:25.630Z,38.79
2019-06-26T13:32:55.107Z,37.71
2019-06-26T13:35:24.571Z,40.40
2019-06-26T13:37:54.049Z,38.23
2019-06-26T13:40:23.505Z,37.74
2019-06-26T13:42:52.984Z,38.74
2019-06-26T13:45:22.474Z,39.42
2019-06-26T13:47:51.925Z,41.47
2019-06-26T13:50:21.633Z,40.06
2019-06-26T13:52:51.088Z,39.11
2019-06-26T13:55:20.625Z,38.26
2019-06-26T13:57:50.077Z,35.96
2019-06-26T14:00:20.660Z,36.25
2019-06-26T14:02:50.136Z,35.71
2019-06-26T14:05:20.139Z,36.38
2019-06-26T14:07:49.612Z,37.94
2019-06-26T14:10:19.874Z,39.45
2019-06-26T14:12:49.320Z,39.96
2019-06-26T14:15:18.991Z,41.79
2019-06-26T14:17:48.450Z,40.34
2019-06-26T14:20:18.561Z,41.41
2019-06-26T14:22:48.026Z,40.25
2019-06-26T14:25:18.080Z,41.18
2019-06-26T14:27:47.551Z,42.68
2019-06-26T14:30:18.712Z,41.82
2019-06-26T14:32:48.525Z,43.57
2019-06-26T14:35:18.118Z,41.23
2019-06-26T14:37:47.599Z,42.53
2019-06-26T14:40:18.313Z,41.81
2019-06-26T14:42:47.767Z,42.63
2019-06-26T14:45:17.622Z,43.54
2019-06-26T14:47:47.090Z,42.81
2019-06-26T14:50:18.281Z,43.26
2019-06-26T14:52:47.723Z,43.35
2019-06-26T14:55:17.263Z,43.25
2019-06-26T14:57:46.730Z,44.33
2019-06-26T15:00:16.989Z,43.54
2019-06-26T15:02:46.460Z,44.45
2019-06-26T15:05:16.239Z,42.79
2019-06-26T15:07:45.693Z,41.94
2019-06-26T15:10:15.867Z,42.34
2019-06-26T15:12:45.323Z,41.40
2019-06-26T15:15:15.598Z,40.52
2019-06-26T15:17:45.053Z,41.35
2019-06-26T15:20:16.518Z,41.84
2019-06-26T15:22:45.986Z,41.71
2019-06-26T15:25:15.878Z,42.07
2019-06-26T15:27:45.353Z,41.81
2019-06-26T15:30:15.206Z,41.90
2019-06-26T15:32:44.729Z,39.32
2019-06-26T15:35:15.126Z,37.09
2019-06-26T15:37:44.926Z,35.26
2019-06-26T15:40:14.871Z,33.02
2019-06-26T15:42:44.325Z,32.10
2019-06-26T15:45:14.337Z,30.71
2019-06-26T15:47:43.793Z,30.18
2019-06-26T15:50:13.602Z,29.88
2019-06-26T15:52:43.083Z,29.57
2019-06-26T15:55:13.394Z,28.73
2019-06-26T15:57:42.867Z,28.32
2019-06-26T16:00:13.843Z,28.17
2019-06-26T16:02:43.315Z,27.69
2019-06-26T16:05:13.172Z,27.46
2019-06-26T16:07:42.622Z,27.69
2019-06-26T16:10:12.272Z,26.98
2019-06-26T16:12:41.720Z,26.74
2019-06-26T16:15:11.939Z,27.37
2019-06-26T16:17:48.424Z,27.38
2019-06-26T16:20:18.037Z,27.60
2019-06-26T16:22:47.488Z,27.70
2019-06-26T16:25:17.282Z,28.66
2019-06-26T16:27:46.748Z,28.97
2019-06-26T16:30:17.210Z,28.71
2019-06-26T16:32:46.662Z,28.81
2019-06-26T16:35:16.879Z,28.64
2019-06-26T16:37:46.400Z,28.81
2019-06-26T16:40:15.937Z,28.55
2019-06-26T16:42:45.409Z,28.69
2019-06-26T16:45:16.578Z,29.27
2019-06-26T16:47:46.048Z,28.39
2019-06-26T16:50:17.006Z,28.44
2019-06-26T16:52:49.580Z,27.63
2019-06-26T16:55:17.878Z,28.58
2019-06-26T16:57:47.351Z,29.49
2019-06-26T17:00:19.054Z,29.81
2019-06-26T17:02:48.508Z,29.81
2019-06-26T17:05:18.417Z,30.15
2019-06-26T17:07:47.877Z,30.83
2019-06-26T17:10:36.686Z,30.55
2019-06-26T17:13:06.198Z,31.46
2019-06-26T17:15:35.666Z,31.62
2019-06-26T17:18:05.138Z,31.69
2019-06-26T17:20:34.587Z,32.19
2019-06-26T17:23:06.443Z,32.52
2019-06-26T17:25:35.500Z,31.99
2019-06-26T17:28:04.960Z,32.33
2019-06-26T17:30:34.464Z,31.58
2019-06-26T17:33:03.912Z,32.61
2019-06-26T17:35:33.383Z,32.89
2019-06-26T17:38:02.884Z,33.03
2019-06-26T17:40:32.336Z,33.01
2019-06-26T17:43:11.975Z,33.36
2019-06-26T17:45:33.038Z,33.44
2019-06-26T17:48:02.553Z,33.65
2019-06-26T17:50:32.032Z,33.84
2019-06-26T17:53:01.536Z,34.45
2019-06-26T17:55:30.992Z,34.43
2019-06-26T17:58:00.474Z,35.08
2019-06-26T18:00:34.640Z,35.93
2019-06-26T18:03:04.337Z,37.50
2019-06-26T18:05:33.798Z,39.09
2019-06-26T18:08:03.246Z,40.66
2019-06-26T18:10:32.689Z,41.83
2019-06-26T18:13:02.145Z,43.13
2019-06-26T18:15:31.617Z,43.90
2019-06-26T18:18:01.094Z,44.54
2019-06-26T18:20:30.563Z,45.77
2019-06-26T18:23:07.030Z,46.86
2019-06-26T18:25:31.370Z,47.25
2019-06-26T18:28:00.914Z,47.01
2019-06-26T18:30:30.425Z,47.12
2019-06-26T18:32:59.839Z,47.29
2019-06-26T18:35:29.295Z,47.06
2019-06-26T18:37:58.754Z,48.56
2019-06-26T18:40:28.196Z,48.80
2019-06-26T18:42:57.660Z,49.22
2019-06-26T18:45:27.104Z,49.75
2019-06-26T18:47:56.578Z,50.18
2019-06-26T18:50:26.019Z,50.69
2019-06-26T18:52:55.475Z,51.23
2019-06-26T18:55:24.925Z,51.72
2019-06-26T18:57:55.004Z,52.80
2019-06-26T19:00:24.611Z,52.98
2019-06-26T19:02:54.068Z,53.38
2019-06-26T19:05:23.525Z,54.33
2019-06-26T19:07:52.973Z,54.54
2019-06-26T19:10:22.434Z,55.08
2019-06-26T19:12:51.893Z,55.70
2019-06-26T19:15:21.413Z,55.88
2019-06-26T19:17:50.891Z,56.31
2019-06-26T19:20:20.857Z,56.57
2019-06-26T19:22:50.295Z,57.15
2019-06-26T19:25:19.752Z,57.63
2019-06-26T19:27:49.192Z,57.47
2019-06-26T19:30:20.061Z,57.69
2019-06-26T19:32:49.584Z,58.05
2019-06-26T19:35:20.013Z,58.85
2019-06-26T19:37:49.868Z,58.87
2019-06-26T19:40:19.636Z,59.07
2019-06-26T19:42:49.104Z,59.76
2019-06-26T19:45:18.818Z,60.35
2019-06-26T19:47:48.262Z,60.56
2019-06-26T19:50:19.148Z,60.80
2019-06-26T19:52:48.597Z,60.82
2019-06-26T19:55:18.131Z,60.94
2019-06-26T19:57:47.565Z,61.18
2019-06-26T20:00:17.661Z,61.18
2019-06-26T20:02:48.148Z,61.47
2019-06-26T20:05:17.694Z,61.50
2019-06-26T20:07:47.148Z,61.46
2019-06-26T20:10:17.101Z,61.32
2019-06-26T20:12:46.595Z,61.51
2019-06-26T20:15:16.210Z,61.59
2019-06-26T20:17:45.708Z,61.44
2019-06-26T20:20:15.375Z,61.27
2019-06-26T20:22:44.816Z,61.55
2019-06-26T20:25:14.786Z,62.20
2019-06-26T20:27:44.364Z,62.04
2019-06-26T20:30:14.791Z,62.34
2019-06-26T20:32:44.222Z,62.48
2019-06-26T20:35:13.748Z,63.13
2019-06-26T20:37:43.193Z,63.10
2019-06-26T20:40:12.962Z,63.58
2019-06-26T20:42:42.411Z,63.38
2019-06-26T20:45:12.563Z,63.34
2019-06-26T20:47:42.021Z,63.14
2019-06-26T20:50:12.469Z,63.20
2019-06-26T20:52:41.897Z,63.45
2019-06-26T20:55:11.879Z,63.38
2019-06-26T20:57:41.435Z,63.67
2019-06-26T21:00:11.335Z,63.73
2019-06-26T21:02:40.784Z,63.67
2019-06-26T21:05:11.220Z,64.02
2019-06-26T21:07:40.689Z,64.31
2019-06-26T21:10:11.163Z,64.14
2019-06-26T21:12:40.604Z,64.33
2019-06-26T21:15:10.771Z,64.54
2019-06-26T21:17:40.219Z,64.55
2019-06-26T21:20:11.751Z,64.67
2019-06-26T21:22:41.199Z,64.90
2019-06-26T21:25:18.829Z,65.06
2019-06-26T21:27:42.049Z,65.26
2019-06-26T21:30:11.736Z,65.22
2019-06-26T21:32:41.214Z,65.43
2019-06-26T21:35:10.886Z,65.62
2019-06-26T21:37:40.319Z,65.58
2019-06-26T21:40:09.922Z,66.11
2019-06-26T21:42:39.380Z,66.03
2019-06-26T21:45:09.575Z,66.47
2019-06-26T21:47:39.033Z,66.49
2019-06-26T21:50:09.403Z,66.49
2019-06-26T21:52:38.860Z,67.08
2019-06-26T21:55:08.587Z,66.79
2019-06-26T21:57:38.027Z,67.30
2019-06-26T22:00:12.552Z,67.65
2019-06-26T22:02:42.064Z,67.52
2019-06-26T22:05:12.933Z,67.42
2019-06-26T22:07:42.453Z,67.43
2019-06-26T22:10:12.362Z,67.52
2019-06-26T22:12:41.830Z,67.67
2019-06-26T22:15:11.758Z,67.78
2019-06-26T22:17:41.216Z,67.63
2019-06-26T22:20:12.765Z,67.71
2019-06-26T22:22:42.186Z,67.98
2019-06-26T22:25:11.700Z,68.33
2019-06-26T22:27:41.171Z,68.30
2019-06-26T22:30:12.115Z,68.33
2019-06-26T22:32:41.975Z,68.70
2019-06-26T22:35:11.909Z,68.79
2019-06-26T22:37:41.338Z,69.24
2019-06-26T22:40:11.019Z,69.32
2019-06-26T22:42:40.463Z,69.54
2019-06-26T22:45:10.168Z,69.66
2019-06-26T22:47:39.608Z,69.67
2019-06-26T22:50:10.800Z,69.43
2019-06-26T22:52:40.262Z,69.80
2019-06-26T22:55:10.279Z,69.82
2019-06-26T22:57:39.723Z,70.02
2019-06-26T23:00:11.679Z,69.91
2019-06-26T23:02:41.199Z,70.22
2019-06-26T23:05:10.826Z,70.89
2019-06-26T23:07:40.275Z,71.03
2019-06-26T23:10:11.128Z,71.31
2019-06-26T23:12:40.589Z,71.89
2019-06-26T23:15:10.865Z,72.77
2019-06-26T23:17:40.323Z,72.79
2019-06-26T23:20:10.024Z,73.17
2019-06-26T23:22:39.478Z,73.96
2019-06-26T23:25:09.371Z,73.71
2019-06-26T23:27:38.899Z,73.74
2019-06-26T23:30:21.060Z,73.38
2019-06-26T23:32:50.505Z,73.19
2019-06-26T23:35:19.955Z,73.37
2019-06-26T23:37:49.419Z,73.46
2019-06-26T23:40:18.995Z,74.23
2019-06-26T23:42:48.539Z,74.72
2019-06-26T23:45:18.261Z,74.45
2019-06-26T23:47:47.763Z,74.48
2019-06-26T23:50:17.992Z,74.84
2019-06-26T23:52:47.498Z,74.70
2019-06-26T23:55:17.090Z,74.47
2019-06-26T23:57:58.432Z,74.38
